Pierrepont Manor, New York
Current Conditions -  °F | °C
As of 10:56 AM on Thursday 23 Oct 2014 (Local Time) from KART Reporting Station
Clear Clear  
Wind Chill: 52°   Ceiling: Unl
Heat Index: 52°   Visibility: 10mi
Dew Point: 36°   Wind: 15mph
Humidity: 54%   Direction: 30°NNE
Pressure: 30.01"   Gusts: 24mph
Location:  43.73°N, 76.06°W
Report Text: KART 231456Z AUTO 03013G21KT 10SM CLR 11/02 A3001 RMK AO2 SLP163 T01110022 58013
Loading
Personal Weather Stations






























Interactive Weather Map
Tropical Storm Tracking
New forecast layout! Learn more

10-Day Weather Forecast

Advertisements
Track Severe Weather on mobile